sensor_id;sensor_type;location;lat;lon;timestamp;pressure;altitude;pressure_sealevel;temperature
76381;BMP280;65202;52.520;10.528;2023-05-21T00:00:31;101380.88;;;14.01
76381;BMP280;65202;52.520;10.528;2023-05-21T00:02:59;101382.00;;;14.28
76381;BMP280;65202;52.520;10.528;2023-05-21T00:05:27;101383.69;;;14.29
76381;BMP280;65202;52.520;10.528;2023-05-21T00:07:54;101379.94;;;14.18
76381;BMP280;65202;52.520;10.528;2023-05-21T00:10:21;101376.03;;;14.26
76381;BMP280;65202;52.520;10.528;2023-05-21T00:12:48;101384.19;;;13.80
76381;BMP280;65202;52.520;10.528;2023-05-21T00:15:16;101370.94;;;14.04
76381;BMP280;65202;52.520;10.528;2023-05-21T00:17:43;101365.50;;;13.95
76381;BMP280;65202;52.520;10.528;2023-05-21T00:20:12;101362.44;;;14.02
76381;BMP280;65202;52.520;10.528;2023-05-21T00:22:39;101360.00;;;13.83
76381;BMP280;65202;52.520;10.528;2023-05-21T00:25:09;101359.63;;;13.94
76381;BMP280;65202;52.520;10.528;2023-05-21T00:27:38;101346.63;;;13.84
76381;BMP280;65202;52.520;10.528;2023-05-21T00:30:05;101354.38;;;13.49
76381;BMP280;65202;52.520;10.528;2023-05-21T00:32:33;101352.66;;;13.48
76381;BMP280;65202;52.520;10.528;2023-05-21T00:35:00;101345.78;;;13.44
76381;BMP280;65202;52.520;10.528;2023-05-21T00:37:28;101350.47;;;13.56
76381;BMP280;65202;52.520;10.528;2023-05-21T00:39:59;101346.06;;;13.50
76381;BMP280;65202;52.520;10.528;2023-05-21T00:42:27;101344.13;;;13.45
76381;BMP280;65202;52.520;10.528;2023-05-21T00:44:56;101342.06;;;13.55
76381;BMP280;65202;52.520;10.528;2023-05-21T00:47:24;101343.28;;;13.44
76381;BMP280;65202;52.520;10.528;2023-05-21T00:49:55;101342.16;;;13.38
76381;BMP280;65202;52.520;10.528;2023-05-21T00:52:22;101336.16;;;13.55
76381;BMP280;65202;52.520;10.528;2023-05-21T00:54:53;101336.09;;;13.53
76381;BMP280;65202;52.520;10.528;2023-05-21T00:57:24;101331.47;;;13.43
76381;BMP280;65202;52.520;10.528;2023-05-21T00:59:53;101329.31;;;13.32
76381;BMP280;65202;52.520;10.528;2023-05-21T01:02:20;101331.91;;;13.15
76381;BMP280;65202;52.520;10.528;2023-05-21T01:04:53;101330.25;;;13.34
76381;BMP280;65202;52.520;10.528;2023-05-21T01:07:21;101320.56;;;13.23
76381;BMP280;65202;52.520;10.528;2023-05-21T01:09:48;101322.22;;;13.42
76381;BMP280;65202;52.520;10.528;2023-05-21T01:12:16;101321.25;;;13.01
76381;BMP280;65202;52.520;10.528;2023-05-21T01:14:45;101321.09;;;13.36
76381;BMP280;65202;52.520;10.528;2023-05-21T01:17:14;101321.88;;;13.15
76381;BMP280;65202;52.520;10.528;2023-05-21T01:19:42;101319.13;;;13.48
76381;BMP280;65202;52.520;10.528;2023-05-21T01:22:11;101323.31;;;13.10
76381;BMP280;65202;52.520;10.528;2023-05-21T01:24:40;101322.91;;;13.20
76381;BMP280;65202;52.520;10.528;2023-05-21T01:27:14;101313.41;;;13.13
76381;BMP280;65202;52.520;10.528;2023-05-21T01:29:41;101318.84;;;13.03
76381;BMP280;65202;52.520;10.528;2023-05-21T01:37:30;101311.69;;;12.93
76381;BMP280;65202;52.520;10.528;2023-05-21T01:40:38;101308.84;;;13.04
76381;BMP280;65202;52.520;10.528;2023-05-21T01:43:11;101305.00;;;12.93
76381;BMP280;65202;52.520;10.528;2023-05-21T01:45:41;101308.13;;;13.07
76381;BMP280;65202;52.520;10.528;2023-05-21T01:48:11;101309.19;;;12.93
76381;BMP280;65202;52.520;10.528;2023-05-21T01:50:42;101307.19;;;12.86
76381;BMP280;65202;52.520;10.528;2023-05-21T01:53:10;101305.72;;;13.10
76381;BMP280;65202;52.520;10.528;2023-05-21T01:55:37;101304.41;;;12.99
76381;BMP280;65202;52.520;10.528;2023-05-21T01:58:08;101305.41;;;12.85
76381;BMP280;65202;52.520;10.528;2023-05-21T02:00:35;101296.56;;;12.91
76381;BMP280;65202;52.520;10.528;2023-05-21T02:03:03;101306.47;;;12.71
76381;BMP280;65202;52.520;10.528;2023-05-21T02:05:30;101307.88;;;12.83
76381;BMP280;65202;52.520;10.528;2023-05-21T02:07:57;101309.97;;;12.92
76381;BMP280;65202;52.520;10.528;2023-05-21T02:10:27;101311.28;;;12.84
76381;BMP280;65202;52.520;10.528;2023-05-21T02:12:54;101300.38;;;13.02
76381;BMP280;65202;52.520;10.528;2023-05-21T02:15:21;101303.41;;;12.76
76381;BMP280;65202;52.520;10.528;2023-05-21T02:17:50;101308.19;;;12.89
76381;BMP280;65202;52.520;10.528;2023-05-21T02:20:19;101302.91;;;12.85
76381;BMP280;65202;52.520;10.528;2023-05-21T02:22:48;101306.63;;;12.74
76381;BMP280;65202;52.520;10.528;2023-05-21T02:25:16;101305.25;;;12.44
76381;BMP280;65202;52.520;10.528;2023-05-21T02:27:45;101303.50;;;12.97
76381;BMP280;65202;52.520;10.528;2023-05-21T02:30:14;101310.97;;;12.59
76381;BMP280;65202;52.520;10.528;2023-05-21T02:32:42;101303.88;;;12.51
76381;BMP280;65202;52.520;10.528;2023-05-21T02:35:11;101312.44;;;12.37
76381;BMP280;65202;52.520;10.528;2023-05-21T02:37:39;101305.78;;;12.56
76381;BMP280;65202;52.520;10.528;2023-05-21T02:40:07;101305.78;;;12.56
76381;BMP280;65202;52.520;10.528;2023-05-21T02:42:37;101309.56;;;12.47
76381;BMP280;65202;52.520;10.528;2023-05-21T02:45:09;101316.47;;;12.33
76381;BMP280;65202;52.520;10.528;2023-05-21T02:47:37;101306.59;;;12.36
76381;BMP280;65202;52.520;10.528;2023-05-21T02:50:06;101300.88;;;12.57
76381;BMP280;65202;52.520;10.528;2023-05-21T02:52:34;101302.19;;;12.32
76381;BMP280;65202;52.520;10.528;2023-05-21T02:55:02;101296.63;;;12.57
76381;BMP280;65202;52.520;10.528;2023-05-21T02:57:29;101301.00;;;12.60
76381;BMP280;65202;52.520;10.528;2023-05-21T02:59:57;101304.69;;;12.32
76381;BMP280;65202;52.520;10.528;2023-05-21T03:02:24;101295.63;;;12.53
76381;BMP280;65202;52.520;10.528;2023-05-21T03:04:51;101287.28;;;12.35
76381;BMP280;65202;52.520;10.528;2023-05-21T03:07:19;101291.22;;;12.30
76381;BMP280;65202;52.520;10.528;2023-05-21T03:09:46;101295.09;;;12.41
76381;BMP280;65202;52.520;10.528;2023-05-21T03:12:13;101280.41;;;12.31
76381;BMP280;65202;52.520;10.528;2023-05-21T03:14:40;101285.47;;;12.50
76381;BMP280;65202;52.520;10.528;2023-05-21T03:17:12;101295.63;;;12.17
76381;BMP280;65202;52.520;10.528;2023-05-21T03:19:43;101290.44;;;12.31
76381;BMP280;65202;52.520;10.528;2023-05-21T03:22:10;101292.63;;;12.06
76381;BMP280;65202;52.520;10.528;2023-05-21T03:24:38;101281.03;;;12.27
76381;BMP280;65202;52.520;10.528;2023-05-21T03:27:06;101274.31;;;12.26
76381;BMP280;65202;52.520;10.528;2023-05-21T03:29:33;101276.00;;;12.27
76381;BMP280;65202;52.520;10.528;2023-05-21T03:32:02;101276.28;;;12.33
76381;BMP280;65202;52.520;10.528;2023-05-21T03:34:29;101283.19;;;12.20
76381;BMP280;65202;52.520;10.528;2023-05-21T03:36:57;101279.84;;;12.19
76381;BMP280;65202;52.520;10.528;2023-05-21T03:39:24;101271.81;;;12.26
76381;BMP280;65202;52.520;10.528;2023-05-21T03:41:51;101265.84;;;12.24
76381;BMP280;65202;52.520;10.528;2023-05-21T03:44:18;101280.28;;;11.93
76381;BMP280;65202;52.520;10.528;2023-05-21T03:46:45;101280.28;;;11.93
76381;BMP280;65202;52.520;10.528;2023-05-21T03:49:13;101273.88;;;12.17
76381;BMP280;65202;52.520;10.528;2023-05-21T03:51:40;101269.97;;;12.05
76381;BMP280;65202;52.520;10.528;2023-05-21T03:54:07;101270.00;;;12.24
76381;BMP280;65202;52.520;10.528;2023-05-21T03:56:35;101286.16;;;12.11
76381;BMP280;65202;52.520;10.528;2023-05-21T03:59:02;101279.34;;;12.09
76381;BMP280;65202;52.520;10.528;2023-05-21T04:01:29;101276.25;;;12.14
76381;BMP280;65202;52.520;10.528;2023-05-21T04:03:56;101286.66;;;12.04
76381;BMP280;65202;52.520;10.528;2023-05-21T04:06:24;101284.78;;;12.35
76381;BMP280;65202;52.520;10.528;2023-05-21T04:08:51;101273.44;;;12.26
76381;BMP280;65202;52.520;10.528;2023-05-21T04:11:18;101282.00;;;12.48
76381;BMP280;65202;52.520;10.528;2023-05-21T04:13:45;101288.19;;;12.37
76381;BMP280;65202;52.520;10.528;2023-05-21T04:16:13;101290.94;;;12.24
76381;BMP280;65202;52.520;10.528;2023-05-21T04:18:45;101288.03;;;12.15
76381;BMP280;65202;52.520;10.528;2023-05-21T04:21:12;101280.03;;;12.41
76381;BMP280;65202;52.520;10.528;2023-05-21T04:23:40;101289.09;;;12.03
76381;BMP280;65202;52.520;10.528;2023-05-21T04:26:07;101275.88;;;12.24
76381;BMP280;65202;52.520;10.528;2023-05-21T04:28:35;101287.38;;;12.19
76381;BMP280;65202;52.520;10.528;2023-05-21T04:31:02;101277.25;;;12.54
76381;BMP280;65202;52.520;10.528;2023-05-21T04:33:29;101281.38;;;12.35
76381;BMP280;65202;52.520;10.528;2023-05-21T04:35:56;101279.16;;;12.41
76381;BMP280;65202;52.520;10.528;2023-05-21T04:38:24;101278.97;;;12.55
76381;BMP280;65202;52.520;10.528;2023-05-21T04:40:51;101280.28;;;12.47
76381;BMP280;65202;52.520;10.528;2023-05-21T04:43:19;101278.31;;;12.40
76381;BMP280;65202;52.520;10.528;2023-05-21T04:45:53;101273.03;;;12.72
76381;BMP280;65202;52.520;10.528;2023-05-21T04:48:23;101280.56;;;12.53
76381;BMP280;65202;52.520;10.528;2023-05-21T04:50:53;101284.41;;;12.64
76381;BMP280;65202;52.520;10.528;2023-05-21T04:53:22;101277.88;;;12.67
76381;BMP280;65202;52.520;10.528;2023-05-21T04:55:52;101283.44;;;12.98
76381;BMP280;65202;52.520;10.528;2023-05-21T04:58:19;101282.97;;;12.69
76381;BMP280;65202;52.520;10.528;2023-05-21T05:00:46;101286.69;;;12.96
76381;BMP280;65202;52.520;10.528;2023-05-21T05:03:17;101277.63;;;12.99
76381;BMP280;65202;52.520;10.528;2023-05-21T05:05:45;101285.59;;;13.10
76381;BMP280;65202;52.520;10.528;2023-05-21T05:08:12;101276.34;;;13.09
76381;BMP280;65202;52.520;10.528;2023-05-21T05:10:42;101274.56;;;13.25
76381;BMP280;65202;52.520;10.528;2023-05-21T05:13:09;101270.88;;;13.37
76381;BMP280;65202;52.520;10.528;2023-05-21T05:15:36;101274.31;;;13.39
76381;BMP280;65202;52.520;10.528;2023-05-21T05:18:05;101274.72;;;13.29
76381;BMP280;65202;52.520;10.528;2023-05-21T05:20:34;101279.59;;;13.25
76381;BMP280;65202;52.520;10.528;2023-05-21T05:23:01;101284.38;;;13.60
76381;BMP280;65202;52.520;10.528;2023-05-21T05:25:29;101282.44;;;13.53
76381;BMP280;65202;52.520;10.528;2023-05-21T05:27:56;101277.19;;;13.48
76381;BMP280;65202;52.520;10.528;2023-05-21T05:30:23;101278.38;;;13.77
76381;BMP280;65202;52.520;10.528;2023-05-21T05:32:51;101283.75;;;13.85
76381;BMP280;65202;52.520;10.528;2023-05-21T05:35:18;101276.50;;;13.93
76381;BMP280;65202;52.520;10.528;2023-05-21T05:37:45;101276.16;;;14.06
76381;BMP280;65202;52.520;10.528;2023-05-21T05:40:13;101275.28;;;14.26
76381;BMP280;65202;52.520;10.528;2023-05-21T05:42:40;101283.88;;;14.31
76381;BMP280;65202;52.520;10.528;2023-05-21T05:45:07;101279.47;;;14.47
76381;BMP280;65202;52.520;10.528;2023-05-21T05:47:35;101273.69;;;14.49
76381;BMP280;65202;52.520;10.528;2023-05-21T05:50:02;101276.84;;;14.67
76381;BMP280;65202;52.520;10.528;2023-05-21T05:52:30;101272.25;;;14.79
76381;BMP280;65202;52.520;10.528;2023-05-21T05:54:57;101278.72;;;14.49
76381;BMP280;65202;52.520;10.528;2023-05-21T05:57:24;101272.00;;;14.72
76381;BMP280;65202;52.520;10.528;2023-05-21T05:59:52;101265.59;;;14.81
76381;BMP280;65202;52.520;10.528;2023-05-21T06:02:19;101261.91;;;14.95
76381;BMP280;65202;52.520;10.528;2023-05-21T06:04:46;101256.44;;;15.07
76381;BMP280;65202;52.520;10.528;2023-05-21T06:07:14;101266.47;;;14.82
76381;BMP280;65202;52.520;10.528;2023-05-21T06:09:41;101272.66;;;14.91
76381;BMP280;65202;52.520;10.528;2023-05-21T06:12:08;101271.56;;;15.07
76381;BMP280;65202;52.520;10.528;2023-05-21T06:14:41;101269.28;;;15.14
76381;BMP280;65202;52.520;10.528;2023-05-21T06:17:11;101260.22;;;15.19
76381;BMP280;65202;52.520;10.528;2023-05-21T06:19:38;101267.00;;;15.45
76381;BMP280;65202;52.520;10.528;2023-05-21T06:22:05;101259.38;;;15.43
76381;BMP280;65202;52.520;10.528;2023-05-21T06:24:32;101252.13;;;15.54
76381;BMP280;65202;52.520;10.528;2023-05-21T06:27:00;101254.06;;;15.61
76381;BMP280;65202;52.520;10.528;2023-05-21T06:29:28;101253.53;;;15.71
76381;BMP280;65202;52.520;10.528;2023-05-21T06:31:55;101259.75;;;15.81
76381;BMP280;65202;52.520;10.528;2023-05-21T06:34:22;101257.06;;;15.76
76381;BMP280;65202;52.520;10.528;2023-05-21T06:36:50;101251.22;;;15.77
76381;BMP280;65202;52.520;10.528;2023-05-21T06:39:17;101252.66;;;15.70
76381;BMP280;65202;52.520;10.528;2023-05-21T06:41:44;101259.69;;;15.78
76381;BMP280;65202;52.520;10.528;2023-05-21T06:44:12;101247.59;;;15.96
76381;BMP280;65202;52.520;10.528;2023-05-21T06:46:39;101250.97;;;15.95
76381;BMP280;65202;52.520;10.528;2023-05-21T06:49:06;101256.72;;;15.91
76381;BMP280;65202;52.520;10.528;2023-05-21T06:51:33;101252.00;;;16.02
76381;BMP280;65202;52.520;10.528;2023-05-21T06:54:01;101243.66;;;16.04
76381;BMP280;65202;52.520;10.528;2023-05-21T06:56:28;101249.25;;;16.22
76381;BMP280;65202;52.520;10.528;2023-05-21T06:58:55;101245.81;;;16.20
76381;BMP280;65202;52.520;10.528;2023-05-21T07:01:22;101250.69;;;16.41
76381;BMP280;65202;52.520;10.528;2023-05-21T07:03:50;101245.19;;;16.55
76381;BMP280;65202;52.520;10.528;2023-05-21T07:06:17;101252.78;;;16.56
76381;BMP280;65202;52.520;10.528;2023-05-21T07:08:44;101249.28;;;16.81
76381;BMP280;65202;52.520;10.528;2023-05-21T07:11:12;101254.94;;;16.72
76381;BMP280;65202;52.520;10.528;2023-05-21T07:13:39;101250.44;;;16.92
76381;BMP280;65202;52.520;10.528;2023-05-21T07:16:06;101257.47;;;17.03
76381;BMP280;65202;52.520;10.528;2023-05-21T07:18:33;101256.16;;;17.17
76381;BMP280;65202;52.520;10.528;2023-05-21T07:21:01;101261.63;;;17.01
76381;BMP280;65202;52.520;10.528;2023-05-21T07:23:28;101257.44;;;17.32
76381;BMP280;65202;52.520;10.528;2023-05-21T07:25:55;101260.50;;;17.22
76381;BMP280;65202;52.520;10.528;2023-05-21T07:28:22;101258.00;;;17.24
76381;BMP280;65202;52.520;10.528;2023-05-21T07:30:49;101255.47;;;17.55
76381;BMP280;65202;52.520;10.528;2023-05-21T07:33:17;101257.66;;;17.41
76381;BMP280;65202;52.520;10.528;2023-05-21T07:35:46;101247.88;;;17.55
76381;BMP280;65202;52.520;10.528;2023-05-21T07:38:13;101242.81;;;17.91
76381;BMP280;65202;52.520;10.528;2023-05-21T07:40:40;101244.69;;;18.36
76381;BMP280;65202;52.520;10.528;2023-05-21T07:43:08;101244.00;;;18.86
76381;BMP280;65202;52.520;10.528;2023-05-21T07:45:35;101247.41;;;19.34
76381;BMP280;65202;52.520;10.528;2023-05-21T07:48:02;101238.97;;;18.89
76381;BMP280;65202;52.520;10.528;2023-05-21T07:50:30;101240.00;;;18.98
76381;BMP280;65202;52.520;10.528;2023-05-21T07:52:57;101237.06;;;18.78
76381;BMP280;65202;52.520;10.528;2023-05-21T07:55:24;101238.31;;;19.00
76381;BMP280;65202;52.520;10.528;2023-05-21T07:57:52;101232.19;;;18.88
76381;BMP280;65202;52.520;10.528;2023-05-21T08:00:22;101228.81;;;18.89
76381;BMP280;65202;52.520;10.528;2023-05-21T08:02:50;101232.84;;;18.78
76381;BMP280;65202;52.520;10.528;2023-05-21T08:05:18;101231.13;;;18.77
76381;BMP280;65202;52.520;10.528;2023-05-21T08:07:47;101230.38;;;18.83
76381;BMP280;65202;52.520;10.528;2023-05-21T08:10:14;101228.44;;;18.68
76381;BMP280;65202;52.520;10.528;2023-05-21T08:12:45;101219.00;;;18.63
76381;BMP280;65202;52.520;10.528;2023-05-21T08:15:12;101227.06;;;18.87
76381;BMP280;65202;52.520;10.528;2023-05-21T08:17:39;101228.00;;;18.92
76381;BMP280;65202;52.520;10.528;2023-05-21T08:20:07;101224.66;;;18.93
76381;BMP280;65202;52.520;10.528;2023-05-21T08:22:34;101228.25;;;19.05
76381;BMP280;65202;52.520;10.528;2023-05-21T08:25:01;101221.00;;;19.24
76381;BMP280;65202;52.520;10.528;2023-05-21T08:27:29;101226.03;;;19.21
76381;BMP280;65202;52.520;10.528;2023-05-21T08:29:56;101221.88;;;19.25
76381;BMP280;65202;52.520;10.528;2023-05-21T08:32:23;101217.97;;;19.45
76381;BMP280;65202;52.520;10.528;2023-05-21T08:34:51;101225.53;;;19.42
76381;BMP280;65202;52.520;10.528;2023-05-21T08:37:20;101215.00;;;19.69
76381;BMP280;65202;52.520;10.528;2023-05-21T08:39:47;101220.25;;;19.83
76381;BMP280;65202;52.520;10.528;2023-05-21T08:42:21;101218.88;;;20.04
76381;BMP280;65202;52.520;10.528;2023-05-21T08:45:06;101225.84;;;20.17
76381;BMP280;65202;52.520;10.528;2023-05-21T08:47:35;101227.91;;;20.45
76381;BMP280;65202;52.520;10.528;2023-05-21T08:50:10;101232.09;;;20.43
76381;BMP280;65202;52.520;10.528;2023-05-21T08:52:40;101219.09;;;20.89
76381;BMP280;65202;52.520;10.528;2023-05-21T08:55:08;101221.09;;;21.22
76381;BMP280;65202;52.520;10.528;2023-05-21T08:57:36;101220.16;;;21.11
76381;BMP280;65202;52.520;10.528;2023-05-21T09:00:09;101220.53;;;20.69
76381;BMP280;65202;52.520;10.528;2023-05-21T09:02:37;101218.94;;;20.77
76381;BMP280;65202;52.520;10.528;2023-05-21T09:05:08;101211.22;;;20.71
76381;BMP280;65202;52.520;10.528;2023-05-21T09:07:46;101210.94;;;20.47
76381;BMP280;65202;52.520;10.528;2023-05-21T09:10:18;101211.19;;;20.65
76381;BMP280;65202;52.520;10.528;2023-05-21T09:12:52;101213.84;;;20.75
76381;BMP280;65202;52.520;10.528;2023-05-21T09:15:20;101220.84;;;20.97
76381;BMP280;65202;52.520;10.528;2023-05-21T09:17:47;101216.00;;;21.22
76381;BMP280;65202;52.520;10.528;2023-05-21T09:20:15;101212.50;;;21.11
76381;BMP280;65202;52.520;10.528;2023-05-21T09:22:47;101222.53;;;20.95
76381;BMP280;65202;52.520;10.528;2023-05-21T09:25:19;101214.78;;;20.83
76381;BMP280;65202;52.520;10.528;2023-05-21T09:27:47;101218.28;;;20.92
76381;BMP280;65202;52.520;10.528;2023-05-21T09:30:15;101226.06;;;21.06
76381;BMP280;65202;52.520;10.528;2023-05-21T09:32:44;101215.72;;;20.91
76381;BMP280;65202;52.520;10.528;2023-05-21T09:35:13;101214.25;;;21.18
76381;BMP280;65202;52.520;10.528;2023-05-21T09:37:42;101212.63;;;21.25
76381;BMP280;65202;52.520;10.528;2023-05-21T09:40:15;101217.53;;;21.04
76381;BMP280;65202;52.520;10.528;2023-05-21T09:42:51;101214.38;;;21.33
76381;BMP280;65202;52.520;10.528;2023-05-21T09:45:26;101216.09;;;21.31
76381;BMP280;65202;52.520;10.528;2023-05-21T09:47:55;101215.28;;;21.38
76381;BMP280;65202;52.520;10.528;2023-05-21T09:50:24;101213.75;;;21.55
76381;BMP280;65202;52.520;10.528;2023-05-21T09:52:54;101208.47;;;21.34
76381;BMP280;65202;52.520;10.528;2023-05-21T09:55:22;101209.34;;;21.41
76381;BMP280;65202;52.520;10.528;2023-05-21T09:57:52;101202.91;;;21.84
76381;BMP280;65202;52.520;10.528;2023-05-21T10:02:54;101200.34;;;21.86
76381;BMP280;65202;52.520;10.528;2023-05-21T10:05:25;101198.53;;;21.64
76381;BMP280;65202;52.520;10.528;2023-05-21T10:08:02;101195.25;;;21.84
76381;BMP280;65202;52.520;10.528;2023-05-21T10:10:31;101193.56;;;21.88
76381;BMP280;65202;52.520;10.528;2023-05-21T10:15:41;101188.78;;;22.47
76381;BMP280;65202;52.520;10.528;2023-05-21T10:18:13;101186.25;;;22.58
76381;BMP280;65202;52.520;10.528;2023-05-21T10:20:42;101183.66;;;22.52
76381;BMP280;65202;52.520;10.528;2023-05-21T10:23:11;101175.25;;;22.99
76381;BMP280;65202;52.520;10.528;2023-05-21T10:25:39;101171.00;;;23.23
76381;BMP280;65202;52.520;10.528;2023-05-21T10:28:07;101177.78;;;22.85
76381;BMP280;65202;52.520;10.528;2023-05-21T10:30:35;101178.66;;;23.01
76381;BMP280;65202;52.520;10.528;2023-05-21T10:33:03;101171.00;;;23.08
76381;BMP280;65202;52.520;10.528;2023-05-21T10:35:32;101176.94;;;22.95
76381;BMP280;65202;52.520;10.528;2023-05-21T10:38:02;101165.06;;;23.29
76381;BMP280;65202;52.520;10.528;2023-05-21T10:40:30;101161.66;;;23.24
76381;BMP280;65202;52.520;10.528;2023-05-21T10:48:57;101159.03;;;22.61
76381;BMP280;65202;52.520;10.528;2023-05-21T10:54:58;101153.09;;;22.77
76381;BMP280;65202;52.520;10.528;2023-05-21T10:57:57;101161.63;;;22.76
76381;BMP280;65202;52.520;10.528;2023-05-21T11:00:36;101148.00;;;22.84
76381;BMP280;65202;52.520;10.528;2023-05-21T11:03:05;101145.47;;;22.86
76381;BMP280;65202;52.520;10.528;2023-05-21T11:05:49;101146.31;;;22.83
76381;BMP280;65202;52.520;10.528;2023-05-21T11:08:22;101142.06;;;23.02
76381;BMP280;65202;52.520;10.528;2023-05-21T11:10:56;101143.75;;;22.97
76381;BMP280;65202;52.520;10.528;2023-05-21T11:13:25;101140.38;;;23.07
76381;BMP280;65202;52.520;10.528;2023-05-21T11:21:14;101132.72;;;23.13
76381;BMP280;65202;52.520;10.528;2023-05-21T11:23:58;101132.69;;;23.37
76381;BMP280;65202;52.520;10.528;2023-05-21T11:26:30;101125.75;;;23.94
76381;BMP280;65202;52.520;10.528;2023-05-21T11:29:16;101130.56;;;24.53
76381;BMP280;65202;52.520;10.528;2023-05-21T11:31:46;101123.50;;;24.86
76381;BMP280;65202;52.520;10.528;2023-05-21T11:34:17;101110.56;;;25.09
76381;BMP280;65202;52.520;10.528;2023-05-21T11:39:43;101108.78;;;25.15
76381;BMP280;65202;52.520;10.528;2023-05-21T11:42:11;101108.47;;;25.43
76381;BMP280;65202;52.520;10.528;2023-05-21T11:44:40;101103.34;;;25.43
76381;BMP280;65202;52.520;10.528;2023-05-21T11:47:12;101099.88;;;25.50
76381;BMP280;65202;52.520;10.528;2023-05-21T11:49:41;101103.09;;;24.77
76381;BMP280;65202;52.520;10.528;2023-05-21T11:52:09;101104.66;;;24.93
76381;BMP280;65202;52.520;10.528;2023-05-21T11:54:41;101102.56;;;25.40
76381;BMP280;65202;52.520;10.528;2023-05-21T11:57:12;101099.19;;;25.35
76381;BMP280;65202;52.520;10.528;2023-05-21T11:59:47;101099.94;;;25.43
76381;BMP280;65202;52.520;10.528;2023-05-21T12:02:18;101102.66;;;25.28
76381;BMP280;65202;52.520;10.528;2023-05-21T12:04:49;101097.63;;;25.19
76381;BMP280;65202;52.520;10.528;2023-05-21T12:07:18;101106.94;;;25.26
76381;BMP280;65202;52.520;10.528;2023-05-21T12:09:47;101101.81;;;25.29
76381;BMP280;65202;52.520;10.528;2023-05-21T12:12:17;101098.44;;;25.21
76381;BMP280;65202;52.520;10.528;2023-05-21T12:14:52;101098.59;;;25.08
76381;BMP280;65202;52.520;10.528;2023-05-21T12:17:24;101088.94;;;25.35
76381;BMP280;65202;52.520;10.528;2023-05-21T12:19:53;101093.41;;;25.12
76381;BMP280;65202;52.520;10.528;2023-05-21T12:22:23;101096.06;;;24.97
76381;BMP280;65202;52.520;10.528;2023-05-21T12:24:51;101091.00;;;24.94
76381;BMP280;65202;52.520;10.528;2023-05-21T12:27:20;101090.22;;;24.83
76381;BMP280;65202;52.520;10.528;2023-05-21T12:29:49;101085.09;;;24.85
76381;BMP280;65202;52.520;10.528;2023-05-21T12:32:19;101091.00;;;24.94
76381;BMP280;65202;52.520;10.528;2023-05-21T12:34:49;101088.50;;;24.85
76381;BMP280;65202;52.520;10.528;2023-05-21T12:37:21;101087.22;;;25.34
76381;BMP280;65202;52.520;10.528;2023-05-21T12:39:54;101088.06;;;25.35
76381;BMP280;65202;52.520;10.528;2023-05-21T12:42:25;101084.06;;;25.86
76381;BMP280;65202;52.520;10.528;2023-05-21T12:44:57;101071.50;;;25.62
76381;BMP280;65202;52.520;10.528;2023-05-21T12:47:25;101074.97;;;25.61
76381;BMP280;65202;52.520;10.528;2023-05-21T12:49:56;101071.31;;;25.82
76381;BMP280;65202;52.520;10.528;2023-05-21T12:52:24;101063.91;;;25.55
76381;BMP280;65202;52.520;10.528;2023-05-21T12:54:54;101067.28;;;25.58
76381;BMP280;65202;52.520;10.528;2023-05-21T12:57:24;101056.50;;;25.33
76381;BMP280;65202;52.520;10.528;2023-05-21T13:00:02;101070.63;;;25.66
76381;BMP280;65202;52.520;10.528;2023-05-21T13:02:34;101057.41;;;25.98
76381;BMP280;65202;52.520;10.528;2023-05-21T13:05:09;101054.66;;;26.11
76381;BMP280;65202;52.520;10.528;2023-05-21T13:07:41;101056.78;;;26.42
76381;BMP280;65202;52.520;10.528;2023-05-21T13:10:09;101049.16;;;26.36
76381;BMP280;65202;52.520;10.528;2023-05-21T13:12:38;101044.63;;;25.95
76381;BMP280;65202;52.520;10.528;2023-05-21T13:15:07;101054.50;;;25.57
76381;BMP280;65202;52.520;10.528;2023-05-21T13:17:35;101049.66;;;25.33
76381;BMP280;65202;52.520;10.528;2023-05-21T13:20:06;101053.66;;;25.55
76381;BMP280;65202;52.520;10.528;2023-05-21T13:25:22;101045.97;;;25.53
76381;BMP280;65202;52.520;10.528;2023-05-21T13:27:52;101033.81;;;25.70
76381;BMP280;65202;52.520;10.528;2023-05-21T13:30:20;101041.31;;;25.13
76381;BMP280;65202;52.520;10.528;2023-05-21T13:32:48;101033.53;;;25.22
76381;BMP280;65202;52.520;10.528;2023-05-21T13:35:16;101030.16;;;25.17
76381;BMP280;65202;52.520;10.528;2023-05-21T13:37:44;101025.84;;;25.22
76381;BMP280;65202;52.520;10.528;2023-05-21T13:40:13;101038.94;;;24.91
76381;BMP280;65202;52.520;10.528;2023-05-21T13:42:43;101032.03;;;24.97
76381;BMP280;65202;52.520;10.528;2023-05-21T13:45:13;101031.41;;;24.77
76381;BMP280;65202;52.520;10.528;2023-05-21T13:47:46;101022.81;;;24.81
76381;BMP280;65202;52.520;10.528;2023-05-21T13:50:14;101031.31;;;24.83
76381;BMP280;65202;52.520;10.528;2023-05-21T13:52:42;101020.28;;;24.77
76381;BMP280;65202;52.520;10.528;2023-05-21T13:55:09;101024.59;;;24.74
76381;BMP280;65202;52.520;10.528;2023-05-21T13:57:37;101020.47;;;24.59
76381;BMP280;65202;52.520;10.528;2023-05-21T14:00:06;101017.97;;;24.52
76381;BMP280;65202;52.520;10.528;2023-05-21T14:02:41;101012.66;;;24.74
76381;BMP280;65202;52.520;10.528;2023-05-21T14:05:09;101004.03;;;24.82
76381;BMP280;65202;52.520;10.528;2023-05-21T14:07:37;101002.09;;;25.02
76381;BMP280;65202;52.520;10.528;2023-05-21T14:10:06;100995.25;;;25.04
76381;BMP280;65202;52.520;10.528;2023-05-21T14:12:33;101009.88;;;24.93
76381;BMP280;65202;52.520;10.528;2023-05-21T14:15:01;101004.06;;;24.79
76381;BMP280;65202;52.520;10.528;2023-05-21T14:17:28;101004.81;;;24.87
76381;BMP280;65202;52.520;10.528;2023-05-21T14:19:55;100995.38;;;24.95
76381;BMP280;65202;52.520;10.528;2023-05-21T14:22:23;100999.13;;;24.59
76381;BMP280;65202;52.520;10.528;2023-05-21T14:24:50;100991.31;;;24.72